Latest Coastal Weather Observations for Cape Moreton

IDQ60701

Issued at 5:15 pm EST Wednesday 16 April 2014 (issued every 10 minutes, with the page automatically refreshed every 10 minutes)

About coastal observations | Map of coastal stations | Coastal observations for QLD | Marine services | Other Formats
Station Details ID: 040043 Name: CAPE MORETON LIGHTHOUSE Lat: -27.03 Lon: 153.47 Height: 99.9 m
Data from the previous 72 hours. | See also: Recent months at Cape Moreton
Date/Time
EST
Temp

°C
Wind Pressure Rain
since 9am
mm
Weather Cloud Vis
km
Sea
Height
m
Swell
Dir
 
Speed
knots
Gust
knots
hPa Trend Height
m
Period
s
Dir
16/05:00pm 22.2 SE 15 18 1014.3 - - - - - - - - -
16/04:30pm 22.4 ESE 14 17 1014.1 - - - - - - - - -
16/04:00pm 22.5 ESE 14 17 1014.0 - - - - - - - - -
16/03:30pm 22.6 ESE 14 16 1013.9 - - - - - - - - -
16/03:00pm 23.1 ESE 12 14 1013.5 - - - - - - - - -
16/02:30pm 23.2 SE 11 13 1014.3 - - - - - - - - -
16/02:00pm 23.2 SE 12 14 1014.4 - - - - - - - - -
16/01:30pm 23.8 SE 11 14 1014.5 - - - - - - - - -
16/01:00pm 23.9 SSE 12 15 1014.7 - - - - - - - - -
16/12:30pm 23.5 SE 12 15 1015.0 - - - - - - - - -
16/12:00pm 23.4 SSE 13 16 1014.9 - - - - - - - - -
16/11:30am 23.2 S 10 16 1015.9 - - - - - - - - -
16/11:00am 22.8 S 12 16 1016.4 - - - - - - - - -
16/10:30am 22.8 S 11 16 1016.6 - - - - - - - - -
16/10:00am 22.4 S 11 17 1016.8 - - - - - - - - -
16/09:30am 21.9 S 12 18 1016.9 - - - - - - - - -
16/09:00am 22.0 S 11 16 1016.5 - - - - - - - - -
16/08:30am 21.3 S 12 18 1016.9 - - - - - - - - -
16/08:00am 20.7 SW 10 13 1016.9 - - - - - - - - -
16/07:30am 19.8 SSW 9 13 1016.4 - - - - - - - - -
16/07:00am 18.4 SW 9 12 1016.0 - - - - - - - - -
16/06:30am 18.1 SSW 11 15 1015.6 - - - - - - - - -
16/06:00am 18.5 SSW 13 17 1014.6 - - - - - - - - -
16/05:30am 18.1 SW 13 17 1015.0 - - - - - - - - -
16/05:00am 18.0 SW 13 17 1014.9 - - - - - - - - -
16/04:30am 18.1 SW 13 16 1014.8 - - - - - - - - -
16/04:00am 18.1 SW 14 17 1014.5 - - - - - - - - -
16/03:30am 18.2 SW 13 16 1014.6 - - - - - - - - -
16/03:00am 18.3 SW 13 16 1014.1 - - - - - - - - -
16/02:30am 18.1 SW 12 15 1014.6 - - - - - - - - -
16/02:00am 18.3 SW 12 16 1014.7 - - - - - - - - -
16/01:30am 18.5 SW 12 16 1015.0 - - - - - - - - -
16/01:00am 18.6 SW 11 15 1015.2 - - - - - - - - -
16/12:30am 18.8 SW 10 13 1015.3 - - - - - - - - -
16/12:00am 19.0 SW 12 15 1015.0 - - - - - - - - -
 
Date/Time
EST
Temp

°C
Wind Pressure Rain
since 9am
mm
Weather Cloud Vis
km
Sea
Height
m
Swell
Dir
 
Speed
knots
Gust
knots
hPa Trend Height
m
Period
s
Dir
15/11:30pm 19.0 SW 12 16 1015.7 - - - - - - - - -
15/11:00pm 19.3 SSW 14 19 1015.7 - - - - - - - - -
15/10:30pm 19.6 SSW 13 18 1015.7 - - - - - - - - -
15/10:00pm 20.3 S 16 21 1015.7 - - - - - - - - -
15/09:30pm 20.5 S 21 27 1015.4 - - - - - - - - -
15/09:00pm 20.5 S 19 27 1015.3 - - - - - - - - -
15/08:30pm 20.7 S 20 27 1015.8 - - - - - - - - -
15/08:22pm 20.9 S 22 32 1015.8 - - - - - - - - -
15/08:00pm 21.4 S 22 29 1015.7 - - - - - - - - -
15/07:30pm 21.3 SSE 27 33 1015.2 - - - - - - - - -
15/07:00pm 21.2 SSE 29 36 1014.8 - - - - - - - - -
15/06:30pm 21.4 SSE 29 34 1014.7 - - - - - - - - -
15/06:00pm 21.4 SSE 26 33 1014.0 - - - - - - - - -
15/05:30pm 21.4 S 25 32 1014.3 - - - - - - - - -
15/05:16pm 21.7 S 26 36 1014.0 - - - - - - - - -
15/05:00pm 21.9 SSE 25 32 1014.0 - - - - - - - - -
15/04:31pm 22.2 S 21 31 1013.7 - - - - - - - - -
15/04:30pm 22.2 S 21 29 1013.9 - - - - - - - - -
15/04:22pm 22.1 S 21 31 1013.9 - - - - - - - - -
15/04:00pm 22.1 S 22 30 1013.7 - - - - - - - - -
15/03:30pm 22.1 S 22 30 1013.7 - - - - - - - - -
15/03:00pm 21.9 S 24 31 1013.2 - - - - - - - - -
15/02:34pm 21.8 S 25 35 1013.4 - - - - - - - - -
15/02:30pm 21.9 S 26 35 1013.3 - - - - - - - - -
15/02:00pm 22.1 S 26 37 1013.1 - - - - - - - - -
15/01:36pm 22.4 S 25 35 1013.1 - - - - - - - - -
15/01:30pm 22.4 S 27 35 1013.1 - - - - - - - - -
15/01:01pm 22.6 S 25 35 1013.3 - - - - - - - - -
15/01:00pm 22.8 S 24 33 1013.5 - - - - - - - - -
15/12:56pm 22.9 S 23 33 1013.7 - - - - - - - - -
15/12:30pm 22.9 S 24 32 1014.2 - - - - - - - - -
15/12:00pm 22.8 S 24 31 1014.0 - - - - - - - - -
15/11:42am 22.7 S 23 33 1014.6 - - - - - - - - -
15/11:30am 22.8 S 23 30 1014.7 - - - - - - - - -
15/11:00am 22.4 S 22 34 1015.0 - - - - - - - - -
15/10:52am 22.4 S 24 34 1015.0 - - - - - - - - -
15/10:30am 22.4 S 23 31 1015.2 - - - - - - - - -
15/10:00am 22.7 S 23 33 1015.4 - - - - - - - - -
15/09:30am 21.7 S 24 31 1015.4 - - - - - - - - -
15/09:00am 22.0 S 23 32 1015.1 - - - - - - - - -
15/08:30am 21.3 S 22 31 1015.4 - - - - - - - - -
15/08:00am 21.2 S 18 28 1015.3 - - - - - - - - -
15/07:54am 20.8 S 20 30 1015.2 - - - - - - - - -
15/07:30am 20.9 SSW 17 23 1014.9 - - - - - - - - -
15/07:25am 20.3 SSW 17 29 1015.0 - - - - - - - - -
15/07:03am 22.0 S 21 31 1014.5 - - - - - - - - -
15/07:00am 21.8 S 21 30 1014.4 - - - - - - - - -
15/06:31am 21.6 S 21 40 1014.3 - - - - - - - - -
15/06:30am 21.8 SSE 32 40 1014.2 - - - - - - - - -
15/06:11am 22.0 SSE 32 40 1013.4 - - - - - - - - -
15/06:06am 21.9 S 22 40 1013.9 - - - - - - - - -
15/06:00am 22.3 SSE 35 40 1012.7 - - - - - - - - -
15/05:30am 22.2 SSE 36 44 1012.7 - - - - - - - - -
15/05:00am 22.1 SSE 35 43 1012.1 - - - - - - - - -
15/04:30am 22.2 SSE 36 41 1011.9 - - - - - - - - -
15/04:00am 22.2 SSE 37 43 1011.5 - - - - - - - - -
15/03:30am 22.1 SE 36 43 1011.5 - - - - - - - - -
15/03:00am 22.1 SSE 38 46 1010.8 - - - - - - - - -
15/02:30am 22.2 SSE 37 44 1011.3 - - - - - - - - -
15/02:00am 22.3 SSE 39 45 1011.3 - - - - - - - - -
15/01:30am 22.1 SSE 38 44 1011.4 - - - - - - - - -
15/01:00am 22.2 SSE 38 44 1011.5 - - - - - - - - -
15/12:30am 22.2 SSE 40 45 1011.5 - - - - - - - - -
15/12:00am 22.4 SE 37 45 1011.5 - - - - - - - - -
 
Date/Time
EST
Temp

°C
Wind Pressure Rain
since 9am
mm
Weather Cloud Vis
km
Sea
Height
m
Swell
Dir
 
Speed
knots
Gust
knots
hPa Trend Height
m
Period
s
Dir
14/11:30pm 22.3 SE 39 47 1011.9 - - - - - - - - -
14/11:00pm 22.3 SE 38 46 1012.3 - - - - - - - - -
14/10:30pm 22.4 SE 40 45 1012.2 - - - - - - - - -
14/10:00pm 22.4 SE 39 47 1012.5 - - - - - - - - -
14/09:30pm 22.4 SE 39 47 1012.6 - - - - - - - - -
14/09:00pm 22.4 SE 39 46 1012.2 - - - - - - - - -
14/08:30pm 22.4 SE 40 46 1012.1 - - - - - - - - -
14/08:00pm 22.4 SE 41 49 1012.0 - - - - - - - - -
14/07:30pm 22.5 SE 39 47 1011.5 - - - - - - - - -
14/07:00pm 22.4 SE 40 46 1011.1 - - - - - - - - -
14/06:30pm 22.4 SE 39 46 1010.7 - - - - - - - - -
14/06:00pm 22.4 SE 39 47 1009.7 - - - - - - - - -
14/05:30pm 22.5 SE 38 44 1010.1 - - - - - - - - -
14/05:00pm 22.5 SE 38 45 1009.9 - - - - - - - - -
14/04:30pm 22.7 SE 38 43 1009.3 - - - - - - - - -
14/04:00pm 22.8 SE 39 46 1009.1 - - - - - - - - -
14/03:30pm 22.6 SE 38 45 1008.8 - - - - - - - - -
14/03:00pm 22.7 SE 38 42 1008.6 - - - - - - - - -
14/02:30pm 22.8 SE 37 42 1009.1 - - - - - - - - -
14/02:00pm 22.6 SE 35 43 1009.5 - - - - - - - - -
14/01:30pm 22.1 ESE 34 39 1009.5 - - - - - - - - -
14/01:00pm 21.9 ESE 31 37 1009.8 - - - - - - - - -
14/12:34pm 21.1 ESE 31 41 1010.1 - - - - - - - - -
14/12:30pm 21.4 ESE 31 38 1010.4 - - - - - - - - -
14/12:13pm 21.3 ESE 31 43 1010.5 - - - - - - - - -
14/12:00pm 20.3 ESE 34 42 1010.4 - - - - - - - - -
14/11:53am 20.8 ESE 29 42 1011.0 - - - - - - - - -
14/11:30am 20.2 ESE 34 41 1011.5 - - - - - - - - -
14/11:00am 19.4 ESE 33 44 1012.3 - - - - - - - - -
14/10:58am 19.8 ESE 34 44 1012.2 - - - - - - - - -
14/10:43am 20.4 ESE 37 43 1011.6 - - - - - - - - -
14/10:34am 22.0 ESE 25 35 1012.1 - - - - - - - - -
14/10:30am 21.8 ESE 24 29 1012.3 - - - - - - - - -
14/10:00am 20.8 ESE 33 41 1012.2 - - - - - - - - -
14/09:47am 20.8 ESE 37 41 1012.0 - - - - - - - - -
14/09:45am 21.7 E 25 40 1012.4 - - - - - - - - -
14/09:30am 21.0 ESE 26 33 1012.6 - - - - - - - - -
14/09:00am 20.8 ESE 31 36 1012.0 - - - - - - - - -
14/08:30am 20.7 ESE 30 36 1012.3 - - - - - - - - -
14/08:00am 21.6 ESE 32 38 1011.6 - - - - - - - - -
14/07:51am 21.6 ESE 32 42 1011.8 - - - - - - - - -
14/07:30am 20.6 ESE 32 38 1011.6 - - - - - - - - -
14/07:00am 19.7 ESE 31 39 1011.7 - - - - - - - - -
14/06:30am 20.1 ESE 32 46 1011.3 - - - - - - - - -
14/06:26am 20.7 ESE 28 40 1011.2 - - - - - - - - -
14/06:00am 22.0 ESE 30 35 1010.9 - - - - - - - - -
14/05:30am 21.5 ESE 31 37 1011.2 - - - - - - - - -
14/05:00am 22.4 ESE 31 35 1010.9 - - - - - - - - -
14/04:30am 22.3 SE 31 35 1010.5 - - - - - - - - -
14/04:00am 21.9 SE 29 33 1010.7 - - - - - - - - -
14/03:35am 21.3 SE 32 36 1010.4 - - - - - - - - -
14/03:31am 21.3 SE 22 33 1010.6 - - - - - - - - -
14/03:30am 20.9 SSE 22 31 1010.7 - - - - - - - - -
14/03:00am 21.2 SE 23 29 1010.6 - - - - - - - - -
14/02:30am 21.9 ESE 29 33 1010.9 - - - - - - - - -
14/02:00am 21.6 ESE 27 31 1011.3 - - - - - - - - -
14/01:30am 21.5 ESE 28 32 1011.6 - - - - - - - - -
14/01:00am 21.8 ESE 20 24 1012.5 - - - - - - - - -
14/12:30am 20.6 ESE 22 26 1012.7 - - - - - - - - -
14/12:00am 21.6 ESE 22 25 1012.5 - - - - - - - - -
 
Date/Time
EST
Temp

°C
Wind Pressure Rain
since 9am
mm
Weather Cloud Vis
km
Sea
Height
m
Swell
Dir
 
Speed
knots
Gust
knots
hPa Trend Height
m
Period
s
Dir
13/11:30pm 22.3 ESE 16 19 1013.6 - - - - - - - - -
13/11:00pm 22.8 ESE 18 21 1013.7 - - - - - - - - -
13/10:30pm 22.7 ESE 19 22 1014.0 - - - - - - - - -
13/10:00pm 22.5 ESE 19 22 1013.9 - - - - - - - - -
13/09:30pm 22.5 ESE 18 21 1014.4 - - - - - - - - -
13/09:00pm 22.2 ESE 21 24 1013.4 - - - - - - - - -
13/08:30pm 21.9 ESE 22 25 1013.7 - - - - - - - - -
13/08:00pm 22.0 ESE 22 26 1013.4 - - - - - - - - -
13/07:30pm 22.1 ESE 21 23 1013.7 - - - - - - - - -
13/07:00pm 22.0 ESE 20 24 1013.4 - - - - - - - - -
13/06:30pm 22.4 ESE 20 24 1013.3 - - - - - - - - -
13/06:00pm 22.2 ESE 22 26 1012.3 - - - - - - - - -
13/05:30pm 21.9 ESE 23 26 1012.5 - - - - - - - - -

Other Formats:

Comma delimited format used in spreadsheet applications
http://www.bom.gov.au/fwo/IDQ60701/IDQ60701.94594.axf

JavaScript Object Notation format (JSON) in row-major order
http://www.bom.gov.au/fwo/IDQ60701/IDQ60701.94594.json